sensor_id;sensor_type;location;lat;lon;timestamp;pressure;altitude;pressure_sealevel;temperature;humidity
73267;BME280;61495;53.400;7.608;2023-10-19T00:01:13;99787.56;;;8.28;93.54
73267;BME280;61495;53.400;7.608;2023-10-19T00:03:41;99786.78;;;8.28;92.69
73267;BME280;61495;53.400;7.608;2023-10-19T00:06:06;99772.44;;;8.22;94.49
73267;BME280;61495;53.400;7.608;2023-10-19T00:08:32;99780.44;;;8.22;95.21
73267;BME280;61495;53.400;7.608;2023-10-19T00:11:10;99771.81;;;8.20;94.59
73267;BME280;61495;53.400;7.608;2023-10-19T00:13:47;99760.97;;;8.15;95.76
73267;BME280;61495;53.400;7.608;2023-10-19T00:16:15;99775.34;;;8.14;96.66
73267;BME280;61495;53.400;7.608;2023-10-19T00:18:47;99765.72;;;8.13;96.31
73267;BME280;61495;53.400;7.608;2023-10-19T00:21:14;99765.09;;;8.11;96.47
73267;BME280;61495;53.400;7.608;2023-10-19T00:23:51;99747.50;;;8.10;96.68
73267;BME280;61495;53.400;7.608;2023-10-19T00:26:20;99743.38;;;8.08;97.86
73267;BME280;61495;53.400;7.608;2023-10-19T00:28:46;99736.88;;;8.04;97.93
73267;BME280;61495;53.400;7.608;2023-10-19T00:31:14;99738.56;;;7.98;98.36
73267;BME280;61495;53.400;7.608;2023-10-19T00:33:40;99734.41;;;8.02;98.62
73267;BME280;61495;53.400;7.608;2023-10-19T00:36:09;99737.31;;;8.01;98.03
73267;BME280;61495;53.400;7.608;2023-10-19T00:38:39;99729.50;;;7.99;98.69
73267;BME280;61495;53.400;7.608;2023-10-19T00:41:08;99739.00;;;7.95;99.56
73267;BME280;61495;53.400;7.608;2023-10-19T00:43:34;99738.16;;;7.95;99.48
73267;BME280;61495;53.400;7.608;2023-10-19T00:46:22;99723.63;;;7.91;100.00
73267;BME280;61495;53.400;7.608;2023-10-19T00:48:52;99720.75;;;7.92;99.17
73267;BME280;61495;53.400;7.608;2023-10-19T00:51:29;99715.84;;;7.89;100.00
73267;BME280;61495;53.400;7.608;2023-10-19T00:53:58;99713.63;;;7.86;100.00
73267;BME280;61495;53.400;7.608;2023-10-19T00:56:25;99717.91;;;7.87;100.00
73267;BME280;61495;53.400;7.608;2023-10-19T00:58:58;99715.66;;;7.84;100.00
73267;BME280;61495;53.400;7.608;2023-10-19T01:01:50;99712.41;;;7.82;100.00
73267;BME280;61495;53.400;7.608;2023-10-19T01:04:15;99699.09;;;7.82;100.00
73267;BME280;61495;53.400;7.608;2023-10-19T01:06:50;99701.75;;;7.82;100.00
73267;BME280;61495;53.400;7.608;2023-10-19T01:09:29;99696.25;;;7.77;100.00
73267;BME280;61495;53.400;7.608;2023-10-19T01:12:00;99682.53;;;7.73;100.00
73267;BME280;61495;53.400;7.608;2023-10-19T01:14:27;99672.69;;;7.74;100.00
73267;BME280;61495;53.400;7.608;2023-10-19T01:16:53;99666.78;;;7.72;100.00
73267;BME280;61495;53.400;7.608;2023-10-19T01:19:25;99668.22;;;7.68;100.00
73267;BME280;61495;53.400;7.608;2023-10-19T01:21:53;99674.59;;;7.67;100.00
73267;BME280;61495;53.400;7.608;2023-10-19T01:24:24;99665.19;;;7.64;100.00
73267;BME280;61495;53.400;7.608;2023-10-19T01:27:07;99664.97;;;7.66;100.00
73267;BME280;61495;53.400;7.608;2023-10-19T01:29:36;99663.34;;;7.65;100.00
73267;BME280;61495;53.400;7.608;2023-10-19T01:32:03;99661.69;;;7.64;100.00
73267;BME280;61495;53.400;7.608;2023-10-19T01:34:34;99650.22;;;7.63;100.00
73267;BME280;61495;53.400;7.608;2023-10-19T01:37:01;99655.97;;;7.60;100.00
73267;BME280;61495;53.400;7.608;2023-10-19T01:39:35;99635.91;;;7.58;100.00
73267;BME280;61495;53.400;7.608;2023-10-19T01:42:02;99645.16;;;7.55;100.00
73267;BME280;61495;53.400;7.608;2023-10-19T01:44:30;99640.84;;;7.54;100.00
73267;BME280;61495;53.400;7.608;2023-10-19T01:46:55;99647.00;;;7.55;100.00
73267;BME280;61495;53.400;7.608;2023-10-19T01:49:21;99626.94;;;7.52;100.00
73267;BME280;61495;53.400;7.608;2023-10-19T01:51:53;99623.44;;;7.52;100.00
73267;BME280;61495;53.400;7.608;2023-10-19T01:54:20;99624.94;;;7.48;100.00
73267;BME280;61495;53.400;7.608;2023-10-19T01:56:53;99614.28;;;7.48;100.00
73267;BME280;61495;53.400;7.608;2023-10-19T01:59:23;99611.00;;;7.46;100.00
73267;BME280;61495;53.400;7.608;2023-10-19T02:01:53;99601.97;;;7.47;100.00
73267;BME280;61495;53.400;7.608;2023-10-19T02:04:20;99608.94;;;7.48;100.00
73267;BME280;61495;53.400;7.608;2023-10-19T02:06:47;99614.28;;;7.48;100.00
73267;BME280;61495;53.400;7.608;2023-10-19T02:09:13;99604.63;;;7.47;100.00
73267;BME280;61495;53.400;7.608;2023-10-19T02:11:57;99581.53;;;7.41;100.00
73267;BME280;61495;53.400;7.608;2023-10-19T02:14:25;99589.09;;;7.44;100.00
73267;BME280;61495;53.400;7.608;2023-10-19T02:16:52;99588.06;;;7.45;100.00
73267;BME280;61495;53.400;7.608;2023-10-19T02:19:22;99584.78;;;7.43;100.00
73267;BME280;61495;53.400;7.608;2023-10-19T02:21:50;99582.53;;;7.40;100.00
73267;BME280;61495;53.400;7.608;2023-10-19T02:24:16;99584.00;;;7.42;100.00
73267;BME280;61495;53.400;7.608;2023-10-19T02:26:43;99578.03;;;7.40;100.00
73267;BME280;61495;53.400;7.608;2023-10-19T02:29:09;99575.38;;;7.40;100.00
73267;BME280;61495;53.400;7.608;2023-10-19T02:31:40;99575.38;;;7.40;100.00
73267;BME280;61495;53.400;7.608;2023-10-19T02:34:06;99556.53;;;7.42;100.00
73267;BME280;61495;53.400;7.608;2023-10-19T02:36:33;99553.25;;;7.40;100.00
73267;BME280;61495;53.400;7.608;2023-10-19T02:39:00;99553.69;;;7.37;100.00
73267;BME280;61495;53.400;7.608;2023-10-19T02:41:42;99556.97;;;7.39;100.00
73267;BME280;61495;53.400;7.608;2023-10-19T02:44:22;99558.56;;;7.40;100.00
73267;BME280;61495;53.400;7.608;2023-10-19T02:46:52;99558.81;;;7.38;100.00
73267;BME280;61495;53.400;7.608;2023-10-19T02:49:21;99555.31;;;7.38;100.00
73267;BME280;61495;53.400;7.608;2023-10-19T02:51:48;99551.00;;;7.37;100.00
73267;BME280;61495;53.400;7.608;2023-10-19T02:54:15;99549.41;;;7.36;100.00
73267;BME280;61495;53.400;7.608;2023-10-19T02:56:52;99551.00;;;7.37;100.00
73267;BME280;61495;53.400;7.608;2023-10-19T02:59:19;99547.31;;;7.38;100.00
73267;BME280;61495;53.400;7.608;2023-10-19T03:01:49;99547.31;;;7.38;100.00
73267;BME280;61495;53.400;7.608;2023-10-19T03:04:15;99530.75;;;7.36;100.00
73267;BME280;61495;53.400;7.608;2023-10-19T03:06:41;99540.78;;;7.34;100.00
73267;BME280;61495;53.400;7.608;2023-10-19T03:09:08;99538.13;;;7.34;100.00
73267;BME280;61495;53.400;7.608;2023-10-19T03:11:57;99521.13;;;7.35;100.00
73267;BME280;61495;53.400;7.608;2023-10-19T03:14:30;99529.53;;;7.32;100.00
73267;BME280;61495;53.400;7.608;2023-10-19T03:16:57;99519.91;;;7.31;100.00
73267;BME280;61495;53.400;7.608;2023-10-19T03:19:23;99519.91;;;7.31;100.00
73267;BME280;61495;53.400;7.608;2023-10-19T03:21:50;99506.00;;;7.28;100.00
73267;BME280;61495;53.400;7.608;2023-10-19T03:24:16;99515.03;;;7.27;100.00
73267;BME280;61495;53.400;7.608;2023-10-19T03:27:11;99493.72;;;7.27;100.00
73267;BME280;61495;53.400;7.608;2023-10-19T03:29:43;99473.66;;;7.25;100.00
73267;BME280;61495;53.400;7.608;2023-10-19T03:32:14;99476.13;;;7.26;100.00
73267;BME280;61495;53.400;7.608;2023-10-19T03:34:41;99491.47;;;7.24;100.00
73267;BME280;61495;53.400;7.608;2023-10-19T03:37:12;99498.69;;;7.24;100.00
73267;BME280;61495;53.400;7.608;2023-10-19T03:39:39;99503.19;;;7.23;100.00
73267;BME280;61495;53.400;7.608;2023-10-19T03:42:05;99502.13;;;7.24;100.00
73267;BME280;61495;53.400;7.608;2023-10-19T03:44:32;99505.63;;;7.25;100.00
73267;BME280;61495;53.400;7.608;2023-10-19T03:47:12;99502.38;;;7.23;100.00
73267;BME280;61495;53.400;7.608;2023-10-19T03:49:39;99504.00;;;7.24;100.00
73267;BME280;61495;53.400;7.608;2023-10-19T03:52:06;99504.00;;;7.24;100.00
73267;BME280;61495;53.400;7.608;2023-10-19T03:54:35;99496.22;;;7.22;100.00
73267;BME280;61495;53.400;7.608;2023-10-19T03:57:17;99493.34;;;7.24;100.00
73267;BME280;61495;53.400;7.608;2023-10-19T03:59:55;99482.09;;;7.22;100.00
73267;BME280;61495;53.400;7.608;2023-10-19T04:02:24;99479.66;;;7.20;100.00
73267;BME280;61495;53.400;7.608;2023-10-19T04:04:51;99484.16;;;7.20;100.00
73267;BME280;61495;53.400;7.608;2023-10-19T04:07:18;99462.84;;;7.20;100.00
73267;BME280;61495;53.400;7.608;2023-10-19T04:09:50;99463.25;;;7.23;100.00
73267;BME280;61495;53.400;7.608;2023-10-19T04:12:39;99458.34;;;7.20;100.00
73267;BME280;61495;53.400;7.608;2023-10-19T04:15:09;99462.03;;;7.19;100.00
73267;BME280;61495;53.400;7.608;2023-10-19T04:17:45;99464.50;;;7.21;100.00
73267;BME280;61495;53.400;7.608;2023-10-19T04:20:11;99472.25;;;7.22;100.00
73267;BME280;61495;53.400;7.608;2023-10-19T04:22:49;99470.66;;;7.21;100.00
73267;BME280;61495;53.400;7.608;2023-10-19T04:25:16;99467.38;;;7.19;100.00
73267;BME280;61495;53.400;7.608;2023-10-19T04:27:44;99462.84;;;7.20;100.00
73267;BME280;61495;53.400;7.608;2023-10-19T04:30:10;99453.84;;;7.21;100.00
73267;BME280;61495;53.400;7.608;2023-10-19T04:32:49;99468.19;;;7.20;100.00
73267;BME280;61495;53.400;7.608;2023-10-19T04:35:16;99451.19;;;7.21;100.00
73267;BME280;61495;53.400;7.608;2023-10-19T04:37:57;99446.88;;;7.20;100.00
73267;BME280;61495;53.400;7.608;2023-10-19T04:40:23;99458.78;;;7.17;100.00
73267;BME280;61495;53.400;7.608;2023-10-19T04:42:51;99456.72;;;7.19;100.00
73267;BME280;61495;53.400;7.608;2023-10-19T04:45:16;99457.31;;;7.21;100.00
73267;BME280;61495;53.400;7.608;2023-10-19T04:47:42;99455.31;;;7.17;100.00
73267;BME280;61495;53.400;7.608;2023-10-19T04:50:07;99462.91;;;7.13;100.00
73267;BME280;61495;53.400;7.608;2023-10-19T04:52:35;99467.78;;;7.16;100.00
73267;BME280;61495;53.400;7.608;2023-10-19T04:55:01;99460.44;;;7.18;100.00
73267;BME280;61495;53.400;7.608;2023-10-19T04:57:27;99456.13;;;7.17;100.00
73267;BME280;61495;53.400;7.608;2023-10-19T04:59:52;99453.47;;;7.17;100.00
73267;BME280;61495;53.400;7.608;2023-10-19T05:02:17;99457.75;;;7.18;100.00
73267;BME280;61495;53.400;7.608;2023-10-19T05:04:43;99457.75;;;7.18;100.00
73267;BME280;61495;53.400;7.608;2023-10-19T05:07:09;99456.31;;;7.16;100.00
73267;BME280;61495;53.400;7.608;2023-10-19T05:09:38;99446.94;;;7.13;100.00
73267;BME280;61495;53.400;7.608;2023-10-19T05:12:06;99467.78;;;7.16;100.00
73267;BME280;61495;53.400;7.608;2023-10-19T05:14:35;99457.16;;;7.16;100.00
73267;BME280;61495;53.400;7.608;2023-10-19T05:17:01;99457.16;;;7.16;100.00
73267;BME280;61495;53.400;7.608;2023-10-19T05:19:30;99460.88;;;7.15;100.00
73267;BME280;61495;53.400;7.608;2023-10-19T05:21:56;99453.31;;;7.12;100.00
73267;BME280;61495;53.400;7.608;2023-10-19T05:24:21;99455.16;;;7.12;100.00
73267;BME280;61495;53.400;7.608;2023-10-19T05:26:47;99449.00;;;7.11;100.00
73267;BME280;61495;53.400;7.608;2023-10-19T05:29:13;99458.03;;;7.10;100.00
73267;BME280;61495;53.400;7.608;2023-10-19T05:31:38;99455.34;;;7.10;100.00
73267;BME280;61495;53.400;7.608;2023-10-19T05:34:04;99450.03;;;7.10;100.00
73267;BME280;61495;53.400;7.608;2023-10-19T05:36:30;99452.69;;;7.10;100.00
73267;BME280;61495;53.400;7.608;2023-10-19T05:38:57;99449.44;;;7.08;100.00
73267;BME280;61495;53.400;7.608;2023-10-19T05:41:23;99451.09;;;7.09;100.00
73267;BME280;61495;53.400;7.608;2023-10-19T05:43:48;99450.25;;;7.09;100.00
73267;BME280;61495;53.400;7.608;2023-10-19T05:46:14;99459.88;;;7.10;100.00
73267;BME280;61495;53.400;7.608;2023-10-19T05:48:43;99460.69;;;7.10;100.00
73267;BME280;61495;53.400;7.608;2023-10-19T05:51:09;99454.34;;;7.11;100.00
73267;BME280;61495;53.400;7.608;2023-10-19T05:53:34;99463.34;;;7.10;100.00
73267;BME280;61495;53.400;7.608;2023-10-19T05:56:00;99456.19;;;7.11;100.00
73267;BME280;61495;53.400;7.608;2023-10-19T05:58:25;99463.34;;;7.10;100.00
73267;BME280;61495;53.400;7.608;2023-10-19T06:00:50;99457.00;;;7.11;100.00
73267;BME280;61495;53.400;7.608;2023-10-19T06:03:17;99470.75;;;7.08;100.00
73267;BME280;61495;53.400;7.608;2023-10-19T06:05:42;99454.53;;;7.10;100.00
73267;BME280;61495;53.400;7.608;2023-10-19T06:08:08;99472.38;;;7.09;100.00
73267;BME280;61495;53.400;7.608;2023-10-19T06:10:34;99470.75;;;7.08;100.00
73267;BME280;61495;53.400;7.608;2023-10-19T06:13:00;99463.78;;;7.07;100.00
73267;BME280;61495;53.400;7.608;2023-10-19T06:15:25;99474.44;;;7.07;100.00
73267;BME280;61495;53.400;7.608;2023-10-19T06:17:51;99474.44;;;7.07;100.00
73267;BME280;61495;53.400;7.608;2023-10-19T06:20:16;99477.72;;;7.09;100.00
73267;BME280;61495;53.400;7.608;2023-10-19T06:22:56;99479.75;;;7.07;100.00
73267;BME280;61495;53.400;7.608;2023-10-19T06:25:26;99482.41;;;7.07;100.00
73267;BME280;61495;53.400;7.608;2023-10-19T06:27:52;99481.84;;;7.05;100.00
73267;BME280;61495;53.400;7.608;2023-10-19T06:30:19;99479.75;;;7.07;100.00
73267;BME280;61495;53.400;7.608;2023-10-19T06:32:48;99489.81;;;7.05;100.00
73267;BME280;61495;53.400;7.608;2023-10-19T06:35:14;99488.78;;;7.06;100.00
73267;BME280;61495;53.400;7.608;2023-10-19T06:37:39;99485.09;;;7.07;100.00
73267;BME280;61495;53.400;7.608;2023-10-19T06:40:06;99479.75;;;7.07;100.00
73267;BME280;61495;53.400;7.608;2023-10-19T06:42:31;99481.41;;;7.08;100.00
73267;BME280;61495;53.400;7.608;2023-10-19T06:44:57;99481.59;;;7.07;100.00
73267;BME280;61495;53.400;7.608;2023-10-19T06:47:22;99486.72;;;7.08;100.00
73267;BME280;61495;53.400;7.608;2023-10-19T06:49:48;99486.72;;;7.08;100.00
73267;BME280;61495;53.400;7.608;2023-10-19T06:52:14;99477.09;;;7.07;100.00
73267;BME280;61495;53.400;7.608;2023-10-19T06:54:41;99478.16;;;7.06;100.00
73267;BME280;61495;53.400;7.608;2023-10-19T06:57:07;99475.69;;;7.05;100.00
73267;BME280;61495;53.400;7.608;2023-10-19T06:59:35;99473.59;;;7.07;100.00
73267;BME280;61495;53.400;7.608;2023-10-19T07:02:01;99480.56;;;7.08;100.00
73267;BME280;61495;53.400;7.608;2023-10-19T07:04:27;99480.56;;;7.08;100.00
73267;BME280;61495;53.400;7.608;2023-10-19T07:06:53;99481.41;;;7.08;100.00
73267;BME280;61495;53.400;7.608;2023-10-19T07:09:19;99490.78;;;7.11;100.00
73267;BME280;61495;53.400;7.608;2023-10-19T07:11:44;99495.31;;;7.10;100.00
73267;BME280;61495;53.400;7.608;2023-10-19T07:14:11;99492.44;;;7.12;100.00
73267;BME280;61495;53.400;7.608;2023-10-19T07:16:39;99486.28;;;7.11;100.00
73267;BME280;61495;53.400;7.608;2023-10-19T07:19:04;99488.94;;;7.11;100.00
73267;BME280;61495;53.400;7.608;2023-10-19T07:21:30;99494.03;;;7.13;100.00
73267;BME280;61495;53.400;7.608;2023-10-19T07:24:00;99496.94;;;7.11;100.00
73267;BME280;61495;53.400;7.608;2023-10-19T07:26:30;99488.38;;;7.09;100.00
73267;BME280;61495;53.400;7.608;2023-10-19T07:28:59;99485.03;;;7.14;100.00
73267;BME280;61495;53.400;7.608;2023-10-19T07:31:25;99491.19;;;7.14;100.00
73267;BME280;61495;53.400;7.608;2023-10-19T07:33:53;99493.84;;;7.14;100.00
73267;BME280;61495;53.400;7.608;2023-10-19T07:36:21;99498.16;;;7.15;100.00
73267;BME280;61495;53.400;7.608;2023-10-19T07:38:46;99495.47;;;7.15;100.00
73267;BME280;61495;53.400;7.608;2023-10-19T07:41:12;99504.50;;;7.14;100.00
73267;BME280;61495;53.400;7.608;2023-10-19T07:43:38;99504.25;;;7.16;100.00
73267;BME280;61495;53.400;7.608;2023-10-19T07:46:04;99500.56;;;7.17;100.00
73267;BME280;61495;53.400;7.608;2023-10-19T07:48:29;99496.91;;;7.18;100.00
73267;BME280;61495;53.400;7.608;2023-10-19T07:50:55;99502.81;;;7.20;100.00
73267;BME280;61495;53.400;7.608;2023-10-19T07:53:21;99501.78;;;7.21;100.00
73267;BME280;61495;53.400;7.608;2023-10-19T07:55:46;99496.47;;;7.21;100.00
73267;BME280;61495;53.400;7.608;2023-10-19T07:58:12;99494.63;;;7.21;100.00
73267;BME280;61495;53.400;7.608;2023-10-19T08:00:37;99505.47;;;7.20;100.00
73267;BME280;61495;53.400;7.608;2023-10-19T08:03:04;99506.28;;;7.20;100.00
73267;BME280;61495;53.400;7.608;2023-10-19T08:05:31;99505.84;;;7.23;100.00
73267;BME280;61495;53.400;7.608;2023-10-19T08:07:57;99498.88;;;7.22;100.00
73267;BME280;61495;53.400;7.608;2023-10-19T08:10:24;99500.53;;;7.23;100.00
73267;BME280;61495;53.400;7.608;2023-10-19T08:12:50;99511.19;;;7.23;100.00
73267;BME280;61495;53.400;7.608;2023-10-19T08:15:17;99513.41;;;7.26;100.00
73267;BME280;61495;53.400;7.608;2023-10-19T08:17:48;99508.09;;;7.26;100.00
73267;BME280;61495;53.400;7.608;2023-10-19T08:20:15;99509.09;;;7.25;100.00
73267;BME280;61495;53.400;7.608;2023-10-19T08:22:53;99505.41;;;7.26;100.00
73267;BME280;61495;53.400;7.608;2023-10-19T08:25:19;99513.19;;;7.28;100.00
73267;BME280;61495;53.400;7.608;2023-10-19T08:27:45;99503.34;;;7.28;100.00
73267;BME280;61495;53.400;7.608;2023-10-19T08:30:13;99512.97;;;7.30;100.00
73267;BME280;61495;53.400;7.608;2023-10-19T08:32:41;99502.31;;;7.30;100.00
73267;BME280;61495;53.400;7.608;2023-10-19T08:35:13;99502.91;;;7.32;100.00
73267;BME280;61495;53.400;7.608;2023-10-19T08:37:39;99510.06;;;7.31;100.00
73267;BME280;61495;53.400;7.608;2023-10-19T08:40:06;99500.03;;;7.33;100.00
73267;BME280;61495;53.400;7.608;2023-10-19T08:42:33;99506.16;;;7.34;100.00
73267;BME280;61495;53.400;7.608;2023-10-19T08:45:00;99511.91;;;7.31;100.00
73267;BME280;61495;53.400;7.608;2023-10-19T08:47:25;99507.78;;;7.35;100.00
73267;BME280;61495;53.400;7.608;2023-10-19T08:49:53;99508.63;;;7.35;100.00
73267;BME280;61495;53.400;7.608;2023-10-19T08:52:20;99502.47;;;7.35;100.00
73267;BME280;61495;53.400;7.608;2023-10-19T08:54:47;99509.44;;;7.36;100.00
73267;BME280;61495;53.400;7.608;2023-10-19T08:57:13;99514.34;;;7.39;100.00
73267;BME280;61495;53.400;7.608;2023-10-19T08:59:39;99515.94;;;7.40;100.00
73267;BME280;61495;53.400;7.608;2023-10-19T09:02:05;99517.59;;;7.41;100.00
73267;BME280;61495;53.400;7.608;2023-10-19T09:04:32;99521.28;;;7.40;100.00
73267;BME280;61495;53.400;7.608;2023-10-19T09:06:57;99520.47;;;7.39;100.00
73267;BME280;61495;53.400;7.608;2023-10-19T09:09:23;99524.56;;;7.42;100.00
73267;BME280;61495;53.400;7.608;2023-10-19T09:11:51;99520.84;;;7.43;100.00
73267;BME280;61495;53.400;7.608;2023-10-19T09:14:34;99517.59;;;7.41;100.00
73267;BME280;61495;53.400;7.608;2023-10-19T09:17:01;99514.91;;;7.41;100.00
73267;BME280;61495;53.400;7.608;2023-10-19T09:22:04;99519.81;;;7.44;100.00
73267;BME280;61495;53.400;7.608;2023-10-19T09:24:34;99526.16;;;7.43;100.00
73267;BME280;61495;53.400;7.608;2023-10-19T09:27:02;99526.53;;;7.46;100.00
73267;BME280;61495;53.400;7.608;2023-10-19T09:29:27;99528.38;;;7.46;100.00
73267;BME280;61495;53.400;7.608;2023-10-19T09:31:53;99522.03;;;7.47;100.00
73267;BME280;61495;53.400;7.608;2023-10-19T09:34:24;99527.38;;;7.47;100.00
73267;BME280;61495;53.400;7.608;2023-10-19T09:36:57;99521.22;;;7.46;100.00
73267;BME280;61495;53.400;7.608;2023-10-19T09:39:23;99525.28;;;7.49;100.00
73267;BME280;61495;53.400;7.608;2023-10-19T09:41:49;99519.38;;;7.47;100.00
73267;BME280;61495;53.400;7.608;2023-10-19T09:44:20;99521.22;;;7.46;100.00
73267;BME280;61495;53.400;7.608;2023-10-19T09:46:51;99522.03;;;7.47;100.00
73267;BME280;61495;53.400;7.608;2023-10-19T09:49:21;99523.69;;;7.48;100.00
73267;BME280;61495;53.400;7.608;2023-10-19T09:51:47;99522.41;;;7.50;100.00
73267;BME280;61495;53.400;7.608;2023-10-19T09:54:22;99529.16;;;7.53;100.00
73267;BME280;61495;53.400;7.608;2023-10-19T09:56:58;99518.50;;;7.53;100.00
73267;BME280;61495;53.400;7.608;2023-10-19T09:59:37;99515.84;;;7.53;100.00
73267;BME280;61495;53.400;7.608;2023-10-19T10:04:31;99520.34;;;7.52;100.00
73267;BME280;61495;53.400;7.608;2023-10-19T10:06:58;99514.00;;;7.53;100.00
73267;BME280;61495;53.400;7.608;2023-10-19T10:09:26;99516.66;;;7.53;100.00
73267;BME280;61495;53.400;7.608;2023-10-19T10:11:52;99516.22;;;7.56;100.00
73267;BME280;61495;53.400;7.608;2023-10-19T10:14:25;99517.03;;;7.57;100.00
73267;BME280;61495;53.400;7.608;2023-10-19T10:17:03;99519.91;;;7.55;100.00
73267;BME280;61495;53.400;7.608;2023-10-19T10:19:30;99526.63;;;7.58;100.00
73267;BME280;61495;53.400;7.608;2023-10-19T10:22:09;99522.38;;;7.57;100.00
73267;BME280;61495;53.400;7.608;2023-10-19T10:24:42;99523.16;;;7.57;100.00
73267;BME280;61495;53.400;7.608;2023-10-19T10:27:08;99519.53;;;7.52;100.00
73267;BME280;61495;53.400;7.608;2023-10-19T10:29:35;99524.41;;;7.55;100.00
73267;BME280;61495;53.400;7.608;2023-10-19T10:32:01;99520.72;;;7.56;100.00
73267;BME280;61495;53.400;7.608;2023-10-19T10:37:05;99520.34;;;7.52;100.00
73267;BME280;61495;53.400;7.608;2023-10-19T10:39:33;99508.41;;;7.55;100.00
73267;BME280;61495;53.400;7.608;2023-10-19T10:42:03;99506.38;;;7.57;100.00
73267;BME280;61495;53.400;7.608;2023-10-19T10:47:10;99508.81;;;7.58;100.00
73267;BME280;61495;53.400;7.608;2023-10-19T10:49:56;99505.31;;;7.58;100.00
73267;BME280;61495;53.400;7.608;2023-10-19T10:52:30;99500.81;;;7.58;100.00
73267;BME280;61495;53.400;7.608;2023-10-19T10:54:58;99512.28;;;7.59;100.00
73267;BME280;61495;53.400;7.608;2023-10-19T10:57:23;99498.38;;;7.57;100.00
73267;BME280;61495;53.400;7.608;2023-10-19T11:00:08;99510.44;;;7.59;100.00
73267;BME280;61495;53.400;7.608;2023-10-19T11:02:59;99513.31;;;7.58;100.00
73267;BME280;61495;53.400;7.608;2023-10-19T11:05:24;99505.31;;;7.58;100.00
73267;BME280;61495;53.400;7.608;2023-10-19T11:10:31;99507.97;;;7.58;100.00
73267;BME280;61495;53.400;7.608;2023-10-19T11:13:03;99498.53;;;7.62;100.00
73267;BME280;61495;53.400;7.608;2023-10-19T11:15:29;99500.94;;;7.63;100.00
73267;BME280;61495;53.400;7.608;2023-10-19T11:17:55;99495.84;;;7.62;100.00
73267;BME280;61495;53.400;7.608;2023-10-19T11:20:22;99506.28;;;7.63;100.00
73267;BME280;61495;53.400;7.608;2023-10-19T11:22:49;99489.94;;;7.60;100.00
73267;BME280;61495;53.400;7.608;2023-10-19T11:25:22;99492.38;;;7.61;100.00
73267;BME280;61495;53.400;7.608;2023-10-19T11:27:48;99483.13;;;7.64;100.00
73267;BME280;61495;53.400;7.608;2023-10-19T11:30:23;99497.06;;;7.66;100.00
73267;BME280;61495;53.400;7.608;2023-10-19T11:32:49;99499.28;;;7.69;100.00
73267;BME280;61495;53.400;7.608;2023-10-19T11:35:18;99497.66;;;7.68;100.00
73267;BME280;61495;53.400;7.608;2023-10-19T11:37:52;99496.00;;;7.67;100.00
73267;BME280;61495;53.400;7.608;2023-10-19T11:40:19;99500.88;;;7.70;100.00
73267;BME280;61495;53.400;7.608;2023-10-19T11:42:45;99504.97;;;7.72;100.00
73267;BME280;61495;53.400;7.608;2023-10-19T11:45:11;99502.28;;;7.72;100.00
73267;BME280;61495;53.400;7.608;2023-10-19T11:47:39;99501.72;;;7.70;100.00
73267;BME280;61495;53.400;7.608;2023-10-19T11:50:05;99506.22;;;7.70;100.00
73267;BME280;61495;53.400;7.608;2023-10-19T11:52:31;99502.53;;;7.71;100.00
73267;BME280;61495;53.400;7.608;2023-10-19T11:54:57;99501.50;;;7.72;100.00
73267;BME280;61495;53.400;7.608;2023-10-19T11:57:25;99489.19;;;7.71;100.00
73267;BME280;61495;53.400;7.608;2023-10-19T11:59:55;99494.53;;;7.71;100.00
73267;BME280;61495;53.400;7.608;2023-10-19T12:02:22;99505.19;;;7.71;100.00
73267;BME280;61495;53.400;7.608;2023-10-19T12:04:48;99499.88;;;7.71;100.00
73267;BME280;61495;53.400;7.608;2023-10-19T12:07:13;99495.56;;;7.70;100.00
73267;BME280;61495;53.400;7.608;2023-10-19T12:09:39;99490.22;;;7.70;100.00
73267;BME280;61495;53.400;7.608;2023-10-19T12:12:07;99483.88;;;7.71;100.00
73267;BME280;61495;53.400;7.608;2023-10-19T12:14:35;99492.44;;;7.73;100.00
73267;BME280;61495;53.400;7.608;2023-10-19T12:17:01;99492.31;;;7.68;100.00
73267;BME280;61495;53.400;7.608;2023-10-19T12:19:29;99491.88;;;7.71;100.00
73267;BME280;61495;53.400;7.608;2023-10-19T12:21:55;99492.69;;;7.71;100.00
73267;BME280;61495;53.400;7.608;2023-10-19T12:24:21;99491.88;;;7.71;100.00
73267;BME280;61495;53.400;7.608;2023-10-19T12:26:47;99492.91;;;7.70;100.00
73267;BME280;61495;53.400;7.608;2023-10-19T12:29:13;99497.19;;;7.71;100.00
73267;BME280;61495;53.400;7.608;2023-10-19T12:31:41;99486.09;;;7.74;100.00
73267;BME280;61495;53.400;7.608;2023-10-19T12:34:07;99479.13;;;7.73;100.00
73267;BME280;61495;53.400;7.608;2023-10-19T12:36:34;99474.84;;;7.72;100.00
73267;BME280;61495;53.400;7.608;2023-10-19T12:39:00;99473.22;;;7.71;100.00
73267;BME280;61495;53.400;7.608;2023-10-19T12:41:25;99475.06;;;7.70;100.00
73267;BME280;61495;53.400;7.608;2023-10-19T12:43:52;99468.09;;;7.69;100.00
73267;BME280;61495;53.400;7.608;2023-10-19T12:46:25;99478.75;;;7.69;100.00
73267;BME280;61495;53.400;7.608;2023-10-19T12:48:52;99470.97;;;7.68;100.00
73267;BME280;61495;53.400;7.608;2023-10-19T12:51:20;99458.25;;;7.70;100.00
73267;BME280;61495;53.400;7.608;2023-10-19T12:53:52;99476.09;;;7.69;100.00
73267;BME280;61495;53.400;7.608;2023-10-19T12:56:21;99474.22;;;7.70;100.00
73267;BME280;61495;53.400;7.608;2023-10-19T12:58:49;99466.84;;;7.72;100.00
73267;BME280;61495;53.400;7.608;2023-10-19T13:01:15;99466.47;;;7.68;100.00
73267;BME280;61495;53.400;7.608;2023-10-19T13:03:43;99474.84;;;7.72;100.00
73267;BME280;61495;53.400;7.608;2023-10-19T13:06:13;99470.53;;;7.71;100.00
73267;BME280;61495;53.400;7.608;2023-10-19T13:08:39;99460.31;;;7.68;100.00
73267;BME280;61495;53.400;7.608;2023-10-19T13:11:08;99472.19;;;7.72;100.00
73267;BME280;61495;53.400;7.608;2023-10-19T13:13:35;99469.72;;;7.70;100.00
73267;BME280;61495;53.400;7.608;2023-10-19T13:16:04;99470.53;;;7.71;100.00
73267;BME280;61495;53.400;7.608;2023-10-19T13:18:31;99474.22;;;7.70;100.00
73267;BME280;61495;53.400;7.608;2023-10-19T13:20:59;99467.28;;;7.69;100.00